Time;durP1;ratioP1;P1;durP2;ratioP2;P2;SDS_P1;SDS_P2;PMS_P1;PMS_P2;Temp;Humidity;BMP_temperature;BMP_pressure;BME280_temperature;BME280_humidity;BME280_pressure;Samples;Min_cycle;Max_cycle;Signal;HPM_P1;HPM_P2
2023/12/25 00:02:08;;;;;;;53.35;26.42;;;;;;;;;;4958503;28;20496;-71
2023/12/25 00:04:34;;;;;;;46.42;26.50;;;;;;;;;;4967641;28;20081;-71
2023/12/25 00:06:59;;;;;;;49.50;25.98;;;;;;;;;;4978050;28;20088;-71
2023/12/25 00:09:25;;;;;;;49.72;26.65;;;;;;;;;;4978920;28;20117;-71
2023/12/25 00:11:51;;;;;;;48.75;27.42;;;;;;;;;;4997113;28;20689;-72
2023/12/25 00:14:16;;;;;;;53.35;31.35;;;;;;;;;;4977868;28;20038;-71
2023/12/25 00:16:42;;;;;;;51.97;30.10;;;;;;;;;;4975457;28;20194;-71
2023/12/25 00:19:08;;;;;;;47.13;25.65;;;;;;;;;;4975022;28;20077;-71
2023/12/25 00:21:33;;;;;;;48.90;26.90;;;;;;;;;;4973241;28;20098;-71
2023/12/25 00:23:59;;;;;;;53.88;27.65;;;;;;;;;;4968694;28;20394;-70
2023/12/25 00:26:25;;;;;;;52.08;26.90;;;;;;;;;;4968339;28;20457;-70
2023/12/25 00:28:57;;;;;;;40.72;22.98;;;;;;;;;;4971542;28;20157;-70
2023/12/25 00:31:23;;;;;;;26.95;14.82;;;;;;;;;;4977503;28;20053;-71
2023/12/25 00:33:49;;;;;;;20.77;11.32;;;;;;;;;;4980030;28;20046;-70
2023/12/25 00:36:14;;;;;;;21.55;9.82;;;;;;;;;;4971454;28;20030;-70
2023/12/25 00:38:41;;;;;;;17.42;9.35;;;;;;;;;;4981960;28;20580;-70
2023/12/25 00:41:07;;;;;;;19.85;8.60;;;;;;;;;;4975982;28;20092;-71
2023/12/25 00:43:33;;;;;;;24.77;10.50;;;;;;;;;;4965928;28;20046;-71
2023/12/25 00:46:03;;;;;;;16.13;8.23;;;;;;;;;;4965990;28;20042;-70
2023/12/25 00:48:29;;;;;;;15.30;7.05;;;;;;;;;;4969118;28;21523;-72
2023/12/25 00:50:54;;;;;;;11.88;7.30;;;;;;;;;;4972937;28;20049;-71
2023/12/25 00:53:20;;;;;;;13.43;7.03;;;;;;;;;;4965861;28;20030;-70
2023/12/25 00:55:49;;;;;;;19.27;8.13;;;;;;;;;;4981361;28;20078;-72
2023/12/25 00:58:14;;;;;;;16.13;7.50;;;;;;;;;;4976546;28;20022;-71
2023/12/25 01:00:40;;;;;;;16.98;7.65;;;;;;;;;;4967858;28;20062;-71
2023/12/25 01:03:06;;;;;;;18.17;9.25;;;;;;;;;;4964988;28;20039;-71
2023/12/25 01:05:31;;;;;;;15.43;7.50;;;;;;;;;;4966124;28;20110;-71
2023/12/25 01:07:57;;;;;;;15.48;7.00;;;;;;;;;;4967259;28;20190;-71
2023/12/25 01:10:23;;;;;;;15.52;7.18;;;;;;;;;;4966055;28;20133;-71
2023/12/25 01:12:48;;;;;;;15.30;6.25;;;;;;;;;;4967410;28;20058;-72
2023/12/25 01:15:14;;;;;;;19.25;6.97;;;;;;;;;;4972052;28;20481;-71
2023/12/25 01:17:41;;;;;;;12.80;6.63;;;;;;;;;;4971036;28;20041;-71
2023/12/25 01:20:07;;;;;;;20.13;7.40;;;;;;;;;;4971558;28;20031;-71
2023/12/25 01:22:33;;;;;;;16.33;8.68;;;;;;;;;;4972361;28;20555;-71
2023/12/25 01:24:59;;;;;;;17.98;8.13;;;;;;;;;;4971360;28;20035;-72
2023/12/25 01:27:25;;;;;;;16.52;7.88;;;;;;;;;;4973120;28;20106;-72
2023/12/25 01:29:51;;;;;;;17.50;8.05;;;;;;;;;;4971711;28;20382;-71
2023/12/25 01:32:17;;;;;;;15.98;8.10;;;;;;;;;;4969326;28;20078;-72
2023/12/25 01:34:42;;;;;;;15.32;8.20;;;;;;;;;;4967371;28;20042;-72
2023/12/25 01:37:08;;;;;;;15.02;8.10;;;;;;;;;;4972775;28;20043;-71
2023/12/25 01:39:34;;;;;;;20.95;10.35;;;;;;;;;;4971373;28;20122;-71
2023/12/25 01:42:00;;;;;;;22.75;9.82;;;;;;;;;;4965018;28;20027;-72
2023/12/25 01:44:25;;;;;;;18.95;9.43;;;;;;;;;;4971558;28;20035;-71
2023/12/25 01:46:54;;;;;;;19.88;9.27;;;;;;;;;;4971436;28;20031;-72
2023/12/25 01:49:21;;;;;;;16.17;8.23;;;;;;;;;;4972670;28;20452;-71
2023/12/25 01:51:46;;;;;;;19.08;9.60;;;;;;;;;;4955186;28;20031;-72
2023/12/25 01:54:12;;;;;;;22.52;9.35;;;;;;;;;;4972108;28;20421;-71
2023/12/25 01:56:39;;;;;;;16.10;8.75;;;;;;;;;;4971118;28;20398;-72
2023/12/25 01:59:04;;;;;;;18.63;9.10;;;;;;;;;;4971289;28;20041;-71
2023/12/25 02:01:30;;;;;;;16.67;8.32;;;;;;;;;;4966095;28;20086;-71
2023/12/25 02:03:56;;;;;;;20.10;8.10;;;;;;;;;;4968167;28;20027;-71
2023/12/25 02:06:22;;;;;;;15.68;7.82;;;;;;;;;;4972544;28;20038;-72
2023/12/25 02:08:49;;;;;;;16.00;7.97;;;;;;;;;;4971100;28;20043;-70
2023/12/25 02:11:14;;;;;;;17.13;7.68;;;;;;;;;;4971156;28;20031;-71
2023/12/25 02:13:40;;;;;;;16.70;7.20;;;;;;;;;;4971398;28;20155;-72
2023/12/25 02:16:08;;;;;;;14.38;7.15;;;;;;;;;;4971632;28;20034;-72
2023/12/25 02:18:34;;;;;;;16.60;7.53;;;;;;;;;;4971143;28;20027;-71
2023/12/25 02:21:01;;;;;;;14.45;7.38;;;;;;;;;;4974567;28;20481;-71
2023/12/25 02:23:29;;;;;;;16.73;7.32;;;;;;;;;;4974597;28;20035;-71
2023/12/25 02:25:57;;;;;;;17.70;7.22;;;;;;;;;;4974636;28;20066;-71
2023/12/25 02:28:24;;;;;;;13.85;7.13;;;;;;;;;;4976019;28;20065;-72
2023/12/25 02:30:53;;;;;;;13.13;7.55;;;;;;;;;;4974698;28;20465;-70
2023/12/25 02:33:19;;;;;;;21.20;7.80;;;;;;;;;;4975314;28;20023;-71
2023/12/25 02:35:44;;;;;;;15.93;8.10;;;;;;;;;;4974380;28;20033;-71
2023/12/25 02:38:10;;;;;;;18.00;8.60;;;;;;;;;;4973337;28;20050;-72
2023/12/25 02:40:39;;;;;;;18.90;7.43;;;;;;;;;;4974514;28;20023;-71
2023/12/25 02:43:08;;;;;;;17.23;8.05;;;;;;;;;;4974160;28;20030;-72
2023/12/25 02:45:35;;;;;;;17.15;8.25;;;;;;;;;;4967484;28;20037;-71
2023/12/25 02:48:00;;;;;;;14.40;7.70;;;;;;;;;;4974531;28;20030;-71
2023/12/25 02:50:26;;;;;;;31.20;10.18;;;;;;;;;;4974539;28;20058;-71
2023/12/25 02:52:52;;;;;;;24.85;9.10;;;;;;;;;;4974351;28;20039;-71
2023/12/25 02:55:18;;;;;;;19.95;8.32;;;;;;;;;;4990032;28;20022;-71
2023/12/25 02:57:43;;;;;;;21.10;9.38;;;;;;;;;;4990834;28;20031;-71
2023/12/25 03:00:10;;;;;;;18.67;8.30;;;;;;;;;;4975380;28;20489;-72
2023/12/25 03:02:35;;;;;;;17.92;9.48;;;;;;;;;;4975701;28;20046;-71
2023/12/25 03:05:02;;;;;;;27.58;13.73;;;;;;;;;;4974840;28;20077;-71
2023/12/25 03:07:28;;;;;;;29.27;12.60;;;;;;;;;;4973884;28;20042;-71
2023/12/25 03:09:54;;;;;;;24.60;11.25;;;;;;;;;;4990117;28;20101;-72
2023/12/25 03:12:19;;;;;;;22.83;10.25;;;;;;;;;;4973559;28;20035;-71
2023/12/25 03:14:45;;;;;;;19.40;9.50;;;;;;;;;;4974950;28;20166;-71
2023/12/25 03:17:10;;;;;;;22.70;10.93;;;;;;;;;;4975133;28;20030;-71
2023/12/25 03:19:37;;;;;;;22.92;11.30;;;;;;;;;;4975079;28;20101;-71
2023/12/25 03:22:03;;;;;;;24.67;11.75;;;;;;;;;;4973688;28;20027;-72
2023/12/25 03:24:28;;;;;;;20.70;11.40;;;;;;;;;;4973723;28;20030;-71
2023/12/25 03:26:54;;;;;;;23.65;11.73;;;;;;;;;;4973745;28;20050;-72
2023/12/25 03:29:20;;;;;;;22.80;11.45;;;;;;;;;;4975126;28;20037;-71
2023/12/25 03:31:45;;;;;;;23.42;10.57;;;;;;;;;;4965308;28;20054;-71
2023/12/25 03:34:18;;;;;;;25.08;10.45;;;;;;;;;;4972453;28;20049;-72
2023/12/25 03:36:44;;;;;;;22.77;10.18;;;;;;;;;;4975465;28;20381;-72
2023/12/25 03:39:11;;;;;;;26.88;11.50;;;;;;;;;;4975420;28;20053;-71
2023/12/25 03:41:36;;;;;;;19.55;9.60;;;;;;;;;;4974620;28;20031;-72
2023/12/25 03:44:02;;;;;;;20.17;10.45;;;;;;;;;;4967276;28;20054;-72
2023/12/25 03:46:28;;;;;;;19.67;10.73;;;;;;;;;;4973307;28;20026;-72
2023/12/25 03:48:54;;;;;;;20.17;9.68;;;;;;;;;;4974762;28;20039;-71
2023/12/25 03:51:21;;;;;;;28.92;12.57;;;;;;;;;;4972927;28;20115;-71
2023/12/25 03:53:47;;;;;;;31.38;14.93;;;;;;;;;;4974259;28;20050;-71
2023/12/25 03:56:17;;;;;;;28.75;13.68;;;;;;;;;;4974324;28;20548;-72
2023/12/25 03:58:43;;;;;;;28.80;14.23;;;;;;;;;;4973046;28;20041;-72
2023/12/25 04:01:12;;;;;;;24.67;13.98;;;;;;;;;;4970730;28;20046;-71
2023/12/25 04:03:38;;;;;;;33.08;14.43;;;;;;;;;;4972408;28;20081;-71
2023/12/25 04:06:04;;;;;;;33.78;17.00;;;;;;;;;;4970019;28;20031;-72
2023/12/25 04:08:29;;;;;;;30.58;18.92;;;;;;;;;;4973409;28;20022;-71
2023/12/25 04:10:55;;;;;;;32.08;17.48;;;;;;;;;;4973193;28;20182;-71
2023/12/25 04:13:21;;;;;;;36.58;18.65;;;;;;;;;;4970290;28;20121;-71
2023/12/25 04:15:46;;;;;;;35.60;19.23;;;;;;;;;;4967459;28;20018;-71
2023/12/25 04:18:12;;;;;;;39.00;19.73;;;;;;;;;;4972500;28;20038;-71
2023/12/25 04:20:39;;;;;;;40.85;18.60;;;;;;;;;;4972499;28;20588;-71
2023/12/25 04:23:05;;;;;;;30.25;18.60;;;;;;;;;;4973907;28;20058;-71
2023/12/25 04:25:31;;;;;;;45.80;20.67;;;;;;;;;;4971157;28;20073;-71
2023/12/25 04:27:56;;;;;;;37.25;18.98;;;;;;;;;;4956409;28;20038;-71
2023/12/25 04:30:22;;;;;;;38.58;19.20;;;;;;;;;;4972606;28;20030;-71
2023/12/25 04:32:48;;;;;;;37.67;18.58;;;;;;;;;;4970657;28;20027;-71
2023/12/25 04:35:14;;;;;;;36.45;19.05;;;;;;;;;;4973431;28;20585;-71
2023/12/25 04:37:39;;;;;;;38.90;19.98;;;;;;;;;;4972223;28;20022;-71
2023/12/25 04:40:05;;;;;;;31.90;19.23;;;;;;;;;;4972411;28;20031;-70
2023/12/25 04:42:31;;;;;;;29.90;17.60;;;;;;;;;;4971375;28;20023;-71
2023/12/25 04:44:57;;;;;;;32.83;19.45;;;;;;;;;;4971876;28;20503;-71
2023/12/25 04:47:22;;;;;;;29.70;17.65;;;;;;;;;;4971870;28;20573;-71
2023/12/25 04:49:48;;;;;;;33.38;17.25;;;;;;;;;;4973488;28;20089;-71
2023/12/25 04:52:14;;;;;;;34.40;18.30;;;;;;;;;;4971950;28;20448;-71
2023/12/25 04:54:41;;;;;;;29.75;17.77;;;;;;;;;;4971993;28;20035;-71
2023/12/25 04:57:07;;;;;;;30.67;17.35;;;;;;;;;;4970168;28;20033;-70
2023/12/25 04:59:33;;;;;;;32.33;17.65;;;;;;;;;;4972841;28;20441;-70
2023/12/25 05:02:00;;;;;;;27.58;16.27;;;;;;;;;;4971959;28;20054;-71
2023/12/25 05:04:26;;;;;;;28.33;17.65;;;;;;;;;;4971604;28;20041;-71
2023/12/25 05:06:52;;;;;;;32.92;17.90;;;;;;;;;;4973385;28;20436;-71
2023/12/25 05:09:19;;;;;;;37.65;20.00;;;;;;;;;;4971996;28;20035;-71
2023/12/25 05:11:44;;;;;;;39.90;21.27;;;;;;;;;;4971787;28;20515;-71
2023/12/25 05:14:10;;;;;;;42.88;22.40;;;;;;;;;;4971410;28;20031;-71
2023/12/25 05:16:36;;;;;;;38.78;21.75;;;;;;;;;;4971714;28;20026;-71
2023/12/25 05:19:01;;;;;;;35.40;21.52;;;;;;;;;;4971427;28;20038;-71
2023/12/25 05:21:27;;;;;;;46.92;22.63;;;;;;;;;;4954940;28;20022;-71
2023/12/25 05:23:53;;;;;;;34.20;19.83;;;;;;;;;;4973060;28;20386;-71
2023/12/25 05:26:18;;;;;;;38.00;21.63;;;;;;;;;;4973660;28;20496;-72
2023/12/25 05:28:44;;;;;;;38.30;21.63;;;;;;;;;;4972767;28;20034;-71
2023/12/25 05:31:12;;;;;;;33.83;19.85;;;;;;;;;;4972878;28;20035;-71
2023/12/25 05:33:38;;;;;;;34.85;19.83;;;;;;;;;;4987312;28;20424;-72
2023/12/25 05:36:04;;;;;;;35.22;20.08;;;;;;;;;;4973572;28;20035;-71
2023/12/25 05:38:30;;;;;;;31.95;18.73;;;;;;;;;;4971385;28;20117;-71
2023/12/25 05:40:55;;;;;;;34.50;18.35;;;;;;;;;;4972916;28;20035;-71
2023/12/25 05:43:21;;;;;;;36.22;18.70;;;;;;;;;;4972330;28;20023;-72
2023/12/25 05:45:47;;;;;;;35.00;20.38;;;;;;;;;;4972641;28;20552;-71
2023/12/25 05:48:12;;;;;;;31.08;17.70;;;;;;;;;;4972180;28;20497;-71
2023/12/25 05:50:38;;;;;;;34.50;18.75;;;;;;;;;;4972331;28;20058;-72
2023/12/25 05:53:04;;;;;;;32.05;18.23;;;;;;;;;;4973191;28;20049;-71
2023/12/25 05:55:29;;;;;;;34.72;19.45;;;;;;;;;;4974828;28;20038;-71
2023/12/25 05:57:55;;;;;;;39.03;18.90;;;;;;;;;;4976510;28;20030;-71
2023/12/25 06:00:21;;;;;;;32.50;18.20;;;;;;;;;;4974923;28;20062;-71
2023/12/25 06:02:48;;;;;;;33.53;20.00;;;;;;;;;;4976181;28;20066;-71
2023/12/25 06:05:13;;;;;;;31.13;19.33;;;;;;;;;;4975854;28;20104;-72
2023/12/25 06:07:39;;;;;;;39.15;21.42;;;;;;;;;;4976287;28;20031;-71
2023/12/25 06:10:06;;;;;;;38.58;22.00;;;;;;;;;;4974960;28;20094;-71
2023/12/25 06:12:32;;;;;;;42.75;22.73;;;;;;;;;;4976255;28;20024;-71
2023/12/25 06:14:57;;;;;;;44.42;25.70;;;;;;;;;;4976163;28;20049;-72
2023/12/25 06:17:23;;;;;;;43.55;24.25;;;;;;;;;;4976029;28;20092;-71
2023/12/25 06:19:49;;;;;;;47.33;28.08;;;;;;;;;;4976040;28;20057;-71
2023/12/25 06:22:14;;;;;;;49.92;27.50;;;;;;;;;;4974900;28;20034;-72
2023/12/25 06:24:40;;;;;;;46.97;26.75;;;;;;;;;;4975983;28;20508;-72
2023/12/25 06:27:06;;;;;;;47.58;25.80;;;;;;;;;;4977351;28;20029;-72
2023/12/25 06:29:31;;;;;;;45.65;25.55;;;;;;;;;;4976074;28;20125;-71
2023/12/25 06:31:57;;;;;;;42.28;24.40;;;;;;;;;;4975924;28;20425;-72
2023/12/25 06:34:23;;;;;;;42.38;24.50;;;;;;;;;;4975751;28;20026;-71
2023/12/25 06:36:49;;;;;;;42.22;23.92;;;;;;;;;;4975969;28;20027;-72
2023/12/25 06:39:17;;;;;;;44.13;25.55;;;;;;;;;;4975729;28;20031;-71
2023/12/25 06:41:42;;;;;;;43.50;22.67;;;;;;;;;;4975746;28;20444;-72
2023/12/25 06:44:08;;;;;;;43.45;24.52;;;;;;;;;;4975245;28;20110;-71
2023/12/25 06:46:35;;;;;;;39.53;22.60;;;;;;;;;;4975706;28;20065;-71
2023/12/25 06:49:01;;;;;;;35.15;22.10;;;;;;;;;;4967463;28;20085;-71
2023/12/25 06:51:27;;;;;;;37.75;21.35;;;;;;;;;;4975071;28;20046;-71
2023/12/25 06:53:52;;;;;;;52.58;23.58;;;;;;;;;;4975699;28;20140;-70
2023/12/25 06:56:18;;;;;;;39.33;23.55;;;;;;;;;;4973958;28;20022;-71
2023/12/25 06:58:44;;;;;;;42.85;24.55;;;;;;;;;;4975314;28;20088;-71
2023/12/25 07:01:09;;;;;;;46.70;23.40;;;;;;;;;;4975165;28;20031;-70
2023/12/25 07:03:35;;;;;;;40.33;24.27;;;;;;;;;;4975683;28;20366;-70
2023/12/25 07:06:01;;;;;;;42.72;25.13;;;;;;;;;;4974878;28;20046;-71
2023/12/25 07:08:27;;;;;;;50.20;27.65;;;;;;;;;;4975906;28;20031;-71
2023/12/25 07:10:56;;;;;;;47.10;27.10;;;;;;;;;;4975267;28;20084;-71
2023/12/25 07:13:22;;;;;;;38.15;25.05;;;;;;;;;;4975375;28;20497;-71
2023/12/25 07:15:47;;;;;;;47.35;23.88;;;;;;;;;;4974129;28;20088;-71
2023/12/25 07:18:13;;;;;;;43.03;23.67;;;;;;;;;;4975245;28;20061;-71
2023/12/25 07:20:39;;;;;;;36.25;21.92;;;;;;;;;;4973594;28;20042;-71
2023/12/25 07:23:04;;;;;;;39.38;24.25;;;;;;;;;;4974568;28;20030;-70
2023/12/25 07:25:30;;;;;;;50.60;32.80;;;;;;;;;;4974750;28;20027;-71
2023/12/25 07:27:56;;;;;;;50.47;33.20;;;;;;;;;;4974731;28;20042;-71
2023/12/25 07:30:21;;;;;;;55.67;34.22;;;;;;;;;;4974498;28;20043;-71
2023/12/25 07:32:47;;;;;;;49.67;30.38;;;;;;;;;;4969198;28;20022;-70
2023/12/25 07:35:13;;;;;;;55.05;29.77;;;;;;;;;;4972949;28;20037;-73
2023/12/25 07:37:38;;;;;;;42.00;26.70;;;;;;;;;;4962094;28;20035;-74
2023/12/25 07:40:05;;;;;;;43.38;28.77;;;;;;;;;;4974526;28;20062;-73
2023/12/25 07:42:31;;;;;;;47.05;27.73;;;;;;;;;;4974878;28;20047;-73
2023/12/25 07:44:57;;;;;;;40.72;24.25;;;;;;;;;;4974356;28;20081;-73
2023/12/25 07:47:22;;;;;;;38.80;23.17;;;;;;;;;;4974628;28;20034;-73
2023/12/25 07:49:48;;;;;;;36.22;22.20;;;;;;;;;;4971584;28;20510;-74
2023/12/25 07:52:13;;;;;;;43.75;21.38;;;;;;;;;;4972607;28;20118;-74
2023/12/25 07:54:39;;;;;;;37.58;22.27;;;;;;;;;;4974471;28;20034;-74
2023/12/25 07:57:05;;;;;;;38.47;21.88;;;;;;;;;;4971639;28;20042;-74
2023/12/25 07:59:30;;;;;;;33.55;19.52;;;;;;;;;;4972772;28;20495;-73
2023/12/25 08:01:57;;;;;;;40.00;20.40;;;;;;;;;;4969238;28;20078;-74
2023/12/25 08:04:22;;;;;;;34.78;20.63;;;;;;;;;;4974327;28;20047;-74
2023/12/25 08:06:48;;;;;;;38.33;19.63;;;;;;;;;;4971752;28;20049;-74
2023/12/25 08:09:14;;;;;;;32.03;19.95;;;;;;;;;;4978544;28;20085;-75
2023/12/25 08:11:39;;;;;;;30.20;18.50;;;;;;;;;;4972234;28;20397;-75
2023/12/25 08:14:05;;;;;;;32.65;19.38;;;;;;;;;;4971196;28;20102;-75
2023/12/25 08:16:31;;;;;;;29.40;18.25;;;;;;;;;;4972272;28;20030;-74
2023/12/25 08:18:56;;;;;;;44.85;23.38;;;;;;;;;;4972229;28;20046;-75
2023/12/25 08:21:23;;;;;;;39.63;19.50;;;;;;;;;;4970982;28;20023;-74
2023/12/25 08:23:49;;;;;;;22.60;15.77;;;;;;;;;;4957523;28;20082;-75
2023/12/25 08:26:14;;;;;;;26.33;14.88;;;;;;;;;;4975924;28;20042;-74
2023/12/25 08:28:43;;;;;;;40.38;22.15;;;;;;;;;;4971667;28;20030;-72
2023/12/25 08:31:08;;;;;;;31.63;18.90;;;;;;;;;;4972000;28;20038;-73
2023/12/25 08:33:35;;;;;;;39.80;25.00;;;;;;;;;;4971754;28;20035;-74
2023/12/25 08:36:01;;;;;;;39.25;24.40;;;;;;;;;;4970330;28;20030;-73
2023/12/25 08:38:26;;;;;;;40.45;24.35;;;;;;;;;;4971574;28;20366;-74
2023/12/25 08:40:53;;;;;;;36.70;22.42;;;;;;;;;;4970302;28;20034;-74
2023/12/25 08:43:18;;;;;;;40.92;22.85;;;;;;;;;;4970413;28;20034;-73
2023/12/25 08:45:44;;;;;;;36.72;22.75;;;;;;;;;;4971769;28;20041;-73
2023/12/25 08:48:10;;;;;;;40.65;23.30;;;;;;;;;;4971225;28;20062;-73
2023/12/25 08:50:35;;;;;;;37.47;22.48;;;;;;;;;;4971550;28;20026;-73
2023/12/25 08:53:02;;;;;;;43.28;25.48;;;;;;;;;;4971640;28;20372;-72
2023/12/25 08:55:27;;;;;;;40.03;26.27;;;;;;;;;;4969818;28;20049;-73
2023/12/25 08:57:53;;;;;;;45.53;27.83;;;;;;;;;;4975399;28;20035;-72
2023/12/25 09:00:20;;;;;;;40.33;26.55;;;;;;;;;;4971600;28;20038;-74
2023/12/25 09:02:46;;;;;;;44.50;25.20;;;;;;;;;;4977888;28;20036;-74
2023/12/25 09:05:12;;;;;;;57.53;31.35;;;;;;;;;;4981649;28;20151;-74
2023/12/25 09:07:38;;;;;;;38.97;25.50;;;;;;;;;;4976846;28;20404;-72
2023/12/25 09:10:06;;;;;;;43.28;26.63;;;;;;;;;;4972870;28;20035;-74
2023/12/25 09:12:33;;;;;;;45.30;28.08;;;;;;;;;;4971119;28;20536;-73
2023/12/25 09:14:59;;;;;;;48.35;29.35;;;;;;;;;;4976241;28;20089;-73
2023/12/25 09:17:25;;;;;;;59.28;34.35;;;;;;;;;;4975762;28;20216;-73
2023/12/25 09:19:50;;;;;;;52.88;32.40;;;;;;;;;;4973040;28;20085;-72
2023/12/25 09:22:17;;;;;;;58.22;30.02;;;;;;;;;;4998072;28;20049;-74
2023/12/25 09:24:44;;;;;;;29.13;17.98;;;;;;;;;;4980170;28;20030;-73
2023/12/25 09:27:10;;;;;;;28.15;15.45;;;;;;;;;;4984795;28;20030;-73
2023/12/25 09:29:36;;;;;;;25.27;15.30;;;;;;;;;;4973215;28;20396;-73
2023/12/25 09:32:02;;;;;;;27.27;16.27;;;;;;;;;;4983160;28;20035;-73
2023/12/25 09:34:29;;;;;;;30.50;18.77;;;;;;;;;;4976984;28;20112;-72
2023/12/25 09:36:57;;;;;;;31.17;18.60;;;;;;;;;;4972331;28;20055;-72
2023/12/25 09:39:23;;;;;;;31.42;19.38;;;;;;;;;;4978192;28;20062;-72
2023/12/25 09:41:50;;;;;;;31.23;17.77;;;;;;;;;;4979881;28;20030;-74
2023/12/25 09:44:16;;;;;;;32.28;14.40;;;;;;;;;;4981304;28;20026;-72
2023/12/25 09:46:44;;;;;;;24.10;14.32;;;;;;;;;;4982001;28;20409;-72
2023/12/25 09:49:10;;;;;;;28.23;16.98;;;;;;;;;;4988313;28;20031;-74
2023/12/25 09:51:40;;;;;;;28.88;16.88;;;;;;;;;;4981994;28;20030;-72
2023/12/25 09:54:06;;;;;;;25.48;14.65;;;;;;;;;;4982414;28;20435;-74
2023/12/25 09:56:36;;;;;;;35.10;19.50;;;;;;;;;;4974196;28;20086;-74
2023/12/25 09:59:05;;;;;;;32.97;19.10;;;;;;;;;;4974009;28;20045;-72
2023/12/25 10:01:33;;;;;;;29.63;18.95;;;;;;;;;;4968293;28;20034;-72
2023/12/25 10:04:00;;;;;;;31.40;19.83;;;;;;;;;;4969618;28;20085;-74
2023/12/25 10:06:26;;;;;;;34.33;18.52;;;;;;;;;;4971110;28;20097;-73
2023/12/25 10:08:52;;;;;;;32.85;19.38;;;;;;;;;;4969204;28;20364;-75
2023/12/25 10:11:17;;;;;;;31.88;19.90;;;;;;;;;;4970331;28;20038;-73
2023/12/25 10:13:43;;;;;;;29.50;16.73;;;;;;;;;;4971157;28;20046;-73
2023/12/25 10:16:09;;;;;;;26.33;15.88;;;;;;;;;;4973015;28;20093;-75
2023/12/25 10:18:39;;;;;;;27.33;16.55;;;;;;;;;;4971413;28;20031;-73
2023/12/25 10:21:05;;;;;;;26.60;14.93;;;;;;;;;;4983027;28;20503;-76
2023/12/25 10:23:33;;;;;;;24.25;14.82;;;;;;;;;;4970605;28;20057;-75
2023/12/25 10:26:00;;;;;;;30.88;16.08;;;;;;;;;;4970253;28;20038;-75
2023/12/25 10:28:27;;;;;;;24.65;15.43;;;;;;;;;;4991390;28;20030;-75
2023/12/25 10:31:08;;;;;;;29.73;17.10;;;;;;;;;;4971792;28;20043;-75
2023/12/25 10:33:35;;;;;;;24.15;14.75;;;;;;;;;;4991251;28;20046;-75
2023/12/25 10:36:10;;;;;;;32.97;14.63;;;;;;;;;;4970854;28;20030;-75
2023/12/25 10:38:42;;;;;;;20.27;13.90;;;;;;;;;;4970873;28;20031;-75
2023/12/25 10:41:22;;;;;;;32.40;15.02;;;;;;;;;;4971221;28;20397;-74
2023/12/25 10:43:54;;;;;;;27.13;13.85;;;;;;;;;;4971731;28;20031;-75
2023/12/25 10:46:34;;;;;;;20.60;13.18;;;;;;;;;;4980560;28;20037;-74
2023/12/25 10:49:01;;;;;;;20.98;11.95;;;;;;;;;;4969927;28;20035;-76
2023/12/25 10:51:46;;;;;;;24.48;12.13;;;;;;;;;;4971574;28;20045;-73
2023/12/25 10:54:13;;;;;;;22.35;12.15;;;;;;;;;;4975466;28;20041;-76
2023/12/25 10:56:39;;;;;;;23.58;12.35;;;;;;;;;;4973157;28;20039;-74
2023/12/25 10:59:23;;;;;;;22.83;13.38;;;;;;;;;;4973633;28;20034;-75
2023/12/25 11:01:51;;;;;;;26.67;12.32;;;;;;;;;;4982012;28;20106;-76
2023/12/25 11:04:18;;;;;;;21.98;12.20;;;;;;;;;;4981645;28;20030;-76
2023/12/25 11:06:44;;;;;;;27.08;11.63;;;;;;;;;;4988476;28;20227;-76
2023/12/25 11:09:17;;;;;;;23.08;12.38;;;;;;;;;;4976474;28;20471;-77
2023/12/25 11:11:46;;;;;;;29.55;11.73;;;;;;;;;;4988728;28;20049;-74
2023/12/25 11:14:12;;;;;;;24.40;13.40;;;;;;;;;;4974255;28;20045;-78
2023/12/25 11:16:38;;;;;;;22.55;12.77;;;;;;;;;;4973595;28;20039;-76
2023/12/25 11:19:05;;;;;;;19.45;11.70;;;;;;;;;;4973512;28;20489;-77
2023/12/25 11:21:33;;;;;;;20.77;11.60;;;;;;;;;;4972502;28;20023;-77
2023/12/25 11:24:02;;;;;;;21.67;11.93;;;;;;;;;;4971500;28;20066;-77
2023/12/25 11:26:29;;;;;;;18.58;10.32;;;;;;;;;;4978706;28;20045;-77
2023/12/25 11:29:03;;;;;;;30.92;15.55;;;;;;;;;;4993604;28;20084;-77
2023/12/25 11:31:40;;;;;;;32.40;17.05;;;;;;;;;;4974006;28;20066;-76
2023/12/25 11:34:29;;;;;;;36.95;19.58;;;;;;;;;;4973580;28;20368;-75
2023/12/25 11:36:58;;;;;;;44.17;22.10;;;;;;;;;;4974121;28;20058;-77
2023/12/25 11:39:29;;;;;;;55.97;28.20;;;;;;;;;;4960045;28;20568;-76
2023/12/25 11:41:55;;;;;;;48.72;24.60;;;;;;;;;;4973034;28;20507;-76
2023/12/25 11:44:31;;;;;;;103.65;25.50;;;;;;;;;;4972957;28;20026;-74
2023/12/25 11:47:02;;;;;;;143.93;28.30;;;;;;;;;;4973713;28;20437;-74
2023/12/25 11:49:31;;;;;;;37.70;21.33;;;;;;;;;;4974037;28;20201;-75
2023/12/25 11:51:57;;;;;;;38.33;21.98;;;;;;;;;;4973201;28;20034;-75
2023/12/25 11:54:29;;;;;;;39.85;23.60;;;;;;;;;;4978745;28;20518;-74
2023/12/25 11:56:57;;;;;;;38.88;22.13;;;;;;;;;;4973865;28;20462;-75
2023/12/25 11:59:23;;;;;;;37.08;22.63;;;;;;;;;;4973626;28;20074;-76
2023/12/25 12:01:49;;;;;;;41.05;22.25;;;;;;;;;;4973189;28;20058;-74
2023/12/25 12:04:17;;;;;;;45.83;25.95;;;;;;;;;;4971892;28;20404;-74
2023/12/25 12:06:44;;;;;;;41.45;26.20;;;;;;;;;;4954425;28;20043;-72
2023/12/25 12:09:09;;;;;;;44.25;24.88;;;;;;;;;;4953977;29;20385;-74
2023/12/25 12:11:35;;;;;;;45.95;28.95;;;;;;;;;;4972292;28;20029;-73
2023/12/25 12:14:02;;;;;;;47.42;28.70;;;;;;;;;;4973528;28;20034;-73
2023/12/25 12:16:28;;;;;;;51.83;30.15;;;;;;;;;;4973152;28;20520;-72
2023/12/25 12:18:54;;;;;;;52.10;30.73;;;;;;;;;;4988518;28;20035;-73
2023/12/25 12:21:20;;;;;;;47.75;28.25;;;;;;;;;;4972989;28;20046;-74
2023/12/25 12:23:47;;;;;;;45.55;27.88;;;;;;;;;;4972642;28;20073;-72
2023/12/25 12:26:17;;;;;;;39.67;25.00;;;;;;;;;;4972951;28;20070;-71
2023/12/25 12:28:45;;;;;;;44.72;27.38;;;;;;;;;;4973560;28;20452;-72
2023/12/25 12:31:13;;;;;;;51.47;31.38;;;;;;;;;;4972408;28;20037;-73
2023/12/25 12:33:41;;;;;;;50.70;29.08;;;;;;;;;;4972387;28;20354;-73
2023/12/25 12:36:06;;;;;;;47.78;29.67;;;;;;;;;;4973723;28;20046;-72
2023/12/25 12:38:33;;;;;;;46.47;27.70;;;;;;;;;;4973201;28;20065;-72
2023/12/25 12:40:59;;;;;;;48.00;28.98;;;;;;;;;;4980734;28;20023;-73
2023/12/25 12:43:25;;;;;;;45.22;27.70;;;;;;;;;;4972831;28;20045;-73
2023/12/25 12:45:50;;;;;;;46.03;27.90;;;;;;;;;;4972397;28;20061;-74
2023/12/25 12:48:17;;;;;;;54.15;33.13;;;;;;;;;;4971766;28;20027;-74
2023/12/25 12:50:43;;;;;;;56.20;32.97;;;;;;;;;;4972534;28;20034;-74
2023/12/25 12:53:08;;;;;;;57.63;30.92;;;;;;;;;;4972385;28;20034;-72
2023/12/25 12:55:36;;;;;;;46.08;28.38;;;;;;;;;;4970825;28;20485;-74
2023/12/25 12:58:03;;;;;;;47.42;29.55;;;;;;;;;;4972589;28;20042;-73
2023/12/25 13:00:29;;;;;;;59.35;35.08;;;;;;;;;;4971066;28;20076;-73
2023/12/25 13:02:58;;;;;;;58.72;35.70;;;;;;;;;;4971932;28;20062;-74
2023/12/25 13:05:25;;;;;;;57.17;34.38;;;;;;;;;;4972353;28;20551;-72
2023/12/25 13:07:52;;;;;;;58.63;33.17;;;;;;;;;;4972157;28;20042;-72
2023/12/25 13:10:19;;;;;;;54.13;32.10;;;;;;;;;;4975882;28;20105;-75
2023/12/25 13:12:45;;;;;;;51.33;31.45;;;;;;;;;;4972466;28;20069;-74
2023/12/25 13:15:10;;;;;;;57.88;34.05;;;;;;;;;;4971524;28;20554;-73
2023/12/25 13:17:36;;;;;;;57.05;33.75;;;;;;;;;;4971993;28;20023;-74
2023/12/25 13:20:02;;;;;;;53.15;30.33;;;;;;;;;;4970871;28;20070;-74
2023/12/25 13:22:28;;;;;;;55.85;33.75;;;;;;;;;;4971505;28;20512;-73
2023/12/25 13:24:55;;;;;;;47.03;30.42;;;;;;;;;;4971271;28;20137;-73
2023/12/25 13:27:21;;;;;;;50.38;30.20;;;;;;;;;;4988694;28;20116;-73
2023/12/25 13:29:47;;;;;;;51.13;29.13;;;;;;;;;;4991391;28;20034;-74
2023/12/25 13:32:14;;;;;;;48.25;28.23;;;;;;;;;;4972184;28;20042;-73
2023/12/25 13:34:40;;;;;;;48.13;28.77;;;;;;;;;;4971700;28;20038;-73
2023/12/25 13:37:05;;;;;;;44.30;27.45;;;;;;;;;;4972344;28;20052;-73
2023/12/25 13:39:32;;;;;;;49.22;30.13;;;;;;;;;;4971852;28;20031;-73
2023/12/25 13:41:58;;;;;;;47.17;29.17;;;;;;;;;;4972092;28;20046;-72
2023/12/25 13:44:25;;;;;;;51.95;31.05;;;;;;;;;;4971930;28;20101;-74
2023/12/25 13:46:51;;;;;;;46.58;30.60;;;;;;;;;;4971429;28;20031;-74
2023/12/25 13:49:17;;;;;;;56.20;30.92;;;;;;;;;;4972093;28;20060;-72
2023/12/25 13:51:43;;;;;;;47.08;28.50;;;;;;;;;;4986720;28;20497;-73
2023/12/25 13:54:08;;;;;;;65.45;36.75;;;;;;;;;;4976305;28;20030;-72
2023/12/25 13:56:34;;;;;;;51.25;31.80;;;;;;;;;;4978919;28;20035;-74
2023/12/25 13:59:00;;;;;;;43.53;26.50;;;;;;;;;;4986299;28;20070;-73
2023/12/25 14:01:26;;;;;;;40.55;25.00;;;;;;;;;;4971325;28;20026;-73
2023/12/25 14:03:51;;;;;;;42.70;26.33;;;;;;;;;;4970313;28;20097;-74
2023/12/25 14:06:17;;;;;;;58.38;35.22;;;;;;;;;;4971494;28;20409;-73
2023/12/25 14:08:43;;;;;;;55.75;33.92;;;;;;;;;;4969969;28;20031;-73
2023/12/25 14:11:08;;;;;;;37.65;24.15;;;;;;;;;;4976364;28;20050;-73
2023/12/25 14:13:34;;;;;;;40.30;22.17;;;;;;;;;;4972190;28;20034;-73
2023/12/25 14:16:00;;;;;;;41.97;23.55;;;;;;;;;;4991733;28;20439;-74